createdAt,value
2019-04-29T00:03:52.077Z,1.10
2019-04-29T00:08:58.208Z,2.27
2019-04-29T00:14:04.617Z,1.45
2019-04-29T00:19:31.917Z,1.10
2019-04-29T00:24:37.901Z,1.10
2019-04-29T00:29:43.731Z,1.82
2019-04-29T00:34:49.738Z,1.82
2019-04-29T00:40:16.360Z,0.80
2019-04-29T00:45:22.220Z,1.20
2019-04-29T00:50:27.447Z,0.80
2019-04-29T00:55:34.360Z,1.22
2019-04-29T01:00:41.649Z,0.80
2019-04-29T01:05:47.457Z,1.82
2019-04-29T01:10:53.288Z,1.12
2019-04-29T01:15:59.138Z,0.80
2019-04-29T01:21:04.727Z,0.85
2019-04-29T01:26:23.158Z,0.65
2019-04-29T01:31:32.310Z,1.00
2019-04-29T01:36:42.828Z,1.25
2019-04-29T01:42:02.727Z,0.75
2019-04-29T01:47:08.472Z,0.80
2019-04-29T01:52:14.227Z,1.02
2019-04-29T01:57:20.048Z,1.00
2019-04-29T02:02:25.827Z,1.32
2019-04-29T02:07:31.647Z,1.07
2019-04-29T02:12:37.424Z,1.17
2019-04-29T02:17:43.208Z,1.25
2019-04-29T02:23:06.357Z,0.78
2019-04-29T02:28:12.139Z,0.70
2019-04-29T02:33:17.950Z,1.47
2019-04-29T02:38:42.258Z,0.88
2019-04-29T02:43:49.638Z,1.20
2019-04-29T02:48:55.428Z,0.68
2019-04-29T02:54:01.227Z,0.88
2019-04-29T02:59:08.088Z,1.00
2019-04-29T03:04:35.228Z,0.88
2019-04-29T03:09:46.028Z,0.90
2019-04-29T03:14:51.799Z,1.00
2019-04-29T03:20:19.070Z,0.68
2019-04-29T03:25:24.878Z,0.72
2019-04-29T03:30:30.700Z,0.90
2019-04-29T03:35:36.497Z,0.68
2019-04-29T03:40:42.171Z,0.75
2019-04-29T03:45:48.048Z,1.20
2019-04-29T03:50:53.859Z,1.42
2019-04-29T03:55:59.721Z,1.42
2019-04-29T04:01:13.198Z,0.60
2019-04-29T04:06:49.588Z,0.80
2019-04-29T04:11:55.291Z,1.62
2019-04-29T04:17:31.623Z,0.80
2019-04-29T04:22:49.754Z,0.70
2019-04-29T04:27:55.627Z,1.37
2019-04-29T04:33:01.458Z,2.65
2019-04-29T04:38:07.338Z,0.88
2019-04-29T04:43:13.109Z,0.70
2019-04-29T04:48:18.837Z,1.47
2019-04-29T04:53:24.668Z,3.00
2019-04-29T04:58:30.447Z,1.22
2019-04-29T05:03:36.277Z,1.47
2019-04-29T05:08:41.967Z,10.98
2019-04-29T05:13:47.780Z,6.10
2019-04-29T05:18:53.617Z,6.78
2019-04-29T05:23:59.328Z,7.25
2019-04-29T05:29:05.139Z,5.50
2019-04-29T05:34:11.297Z,3.95
2019-04-29T05:39:23.387Z,6.35
2019-04-29T05:44:46.969Z,10.15
2019-04-29T05:50:11.782Z,6.08
2019-04-29T05:55:17.497Z,7.25
2019-04-29T06:00:24.263Z,3.80
2019-04-29T06:05:30.186Z,9.13
2019-04-29T06:10:36.408Z,4.70
2019-04-29T06:15:42.077Z,7.92
2019-04-29T06:20:47.805Z,4.25
2019-04-29T06:25:53.570Z,6.40
2019-04-29T06:30:59.528Z,8.28
2019-04-29T06:36:05.197Z,4.80
2019-04-29T06:41:11.003Z,9.10
2019-04-29T06:46:16.778Z,2.95
2019-04-29T06:51:22.508Z,4.40
2019-04-29T06:56:28.148Z,10.03
2019-04-29T07:01:37.592Z,1.85
2019-04-29T07:06:41.127Z,3.62
2019-04-29T07:11:46.787Z,2.90
2019-04-29T07:16:52.528Z,3.52
2019-04-29T07:21:58.147Z,2.08
2019-04-29T07:27:04.476Z,1.27
2019-04-29T07:32:10.736Z,2.80
2019-04-29T07:37:16.974Z,1.22
2019-04-29T07:42:25.095Z,2.22
2019-04-29T07:47:31.142Z,2.35
2019-04-29T07:52:36.937Z,0.72
2019-04-29T07:57:42.738Z,2.02
2019-04-29T08:02:48.517Z,1.57
2019-04-29T08:07:54.398Z,1.05
2019-04-29T08:13:01.357Z,2.33
2019-04-29T08:18:11.214Z,0.70
2019-04-29T08:23:14.338Z,2.02
2019-04-29T08:28:20.027Z,1.50
2019-04-29T08:33:25.870Z,3.10
2019-04-29T08:38:31.712Z,15.05
2019-04-29T08:43:52.512Z,22.05
2019-04-29T08:48:56.768Z,24.98
2019-04-29T08:54:02.369Z,33.28
2019-04-29T08:59:08.078Z,41.35
2019-04-29T09:04:13.962Z,31.33
2019-04-29T09:09:28.857Z,34.98
2019-04-29T09:14:27.148Z,28.62
2019-04-29T09:19:32.817Z,29.05
2019-04-29T09:24:43.700Z,29.45
2019-04-29T09:29:49.076Z,20.60
2019-04-29T09:34:55.429Z,14.65
2019-04-29T09:40:03.177Z,20.60
2019-04-29T09:45:24.501Z,22.20
2019-04-29T09:50:34.151Z,17.12
2019-04-29T09:55:40.066Z,23.27
2019-04-29T10:00:58.128Z,16.48
2019-04-29T10:06:12.447Z,24.95
2019-04-29T10:11:18.508Z,18.50
2019-04-29T10:16:55.608Z,17.95
2019-04-29T10:22:01.427Z,17.30
2019-04-29T10:27:07.465Z,18.92
2019-04-29T10:32:14.547Z,14.85
2019-04-29T10:37:23.773Z,10.60
2019-04-29T10:42:43.087Z,10.15
2019-04-29T10:47:58.890Z,11.10
2019-04-29T10:53:05.438Z,13.70
2019-04-29T10:58:11.407Z,9.48
2019-04-29T11:03:20.746Z,7.33
2019-04-29T11:08:43.123Z,16.48
2019-04-29T11:13:50.640Z,6.83
2019-04-29T11:19:00.333Z,10.75
2019-04-29T11:24:16.748Z,25.25
2019-04-29T11:29:27.472Z,7.92
2019-04-29T11:34:53.459Z,15.53
2019-04-29T11:39:57.281Z,12.58
2019-04-29T11:45:05.466Z,7.67
2019-04-29T11:50:29.649Z,6.95
2019-04-29T11:55:35.647Z,6.25
2019-04-29T12:01:08.355Z,6.35
2019-04-29T12:06:16.324Z,5.42
2019-04-29T12:11:22.739Z,7.00
2019-04-29T12:16:41.056Z,4.00
2019-04-29T12:21:47.307Z,5.55
2019-04-29T12:26:53.028Z,8.78
2019-04-29T12:32:08.557Z,3.55
2019-04-29T12:37:34.435Z,4.95
2019-04-29T12:42:57.817Z,2.67
2019-04-29T12:48:06.493Z,5.47
2019-04-29T12:53:11.948Z,8.50
2019-04-29T12:58:19.413Z,6.83
2019-04-29T13:03:41.118Z,7.75
2019-04-29T13:08:50.208Z,6.92
2019-04-29T13:13:58.314Z,5.47
2019-04-29T13:19:25.119Z,7.62
2019-04-29T13:24:31.769Z,6.62
2019-04-29T13:29:37.753Z,6.95
2019-04-29T13:34:45.438Z,4.47
2019-04-29T13:40:10.006Z,6.03
2019-04-29T13:45:20.155Z,6.22
2019-04-29T13:50:40.352Z,11.18
2019-04-29T13:55:49.202Z,4.15
2019-04-29T14:01:31.249Z,9.05
2019-04-29T14:06:31.766Z,5.40
2019-04-29T14:11:37.583Z,5.65
2019-04-29T14:16:47.565Z,5.65
2019-04-29T14:21:50.890Z,8.00
2019-04-29T14:26:56.757Z,5.92
2019-04-29T14:32:02.947Z,5.60
2019-04-29T14:37:21.311Z,5.40
2019-04-29T14:42:25.620Z,4.33
2019-04-29T14:47:50.351Z,3.60
2019-04-29T14:52:56.267Z,3.62
2019-04-29T14:58:02.148Z,5.25
2019-04-29T15:03:08.022Z,5.65
2019-04-29T15:08:14.056Z,9.93
2019-04-29T15:13:21.663Z,8.40
2019-04-29T15:18:50.057Z,7.03
2019-04-29T15:23:53.478Z,10.23
2019-04-29T15:28:59.597Z,12.10
2019-04-29T15:34:08.783Z,11.08
2019-04-29T15:39:12.941Z,11.97
2019-04-29T15:44:22.130Z,11.03
2019-04-29T15:49:26.644Z,12.68
2019-04-29T15:54:32.488Z,12.05
2019-04-29T15:59:48.681Z,21.55
2019-04-29T16:04:52.018Z,12.65
2019-04-29T16:10:22.838Z,14.85
2019-04-29T16:15:28.399Z,16.10
2019-04-29T16:20:34.229Z,21.25
2019-04-29T16:25:40.999Z,19.45
2019-04-29T16:30:47.286Z,12.28
2019-04-29T16:35:57.695Z,14.35
2019-04-29T16:41:12.582Z,10.45
2019-04-29T16:46:24.281Z,10.40
2019-04-29T16:51:34.089Z,8.93
2019-04-29T16:56:39.950Z,11.73
2019-04-29T17:01:45.618Z,8.53
2019-04-29T17:07:11.138Z,5.37
2019-04-29T17:12:00.268Z,13.68
2019-04-29T17:17:07.931Z,13.75
2019-04-29T17:22:25.348Z,16.40
2019-04-29T17:27:42.093Z,8.28
2019-04-29T17:33:04.169Z,11.75
2019-04-29T17:38:10.358Z,5.15
2019-04-29T17:43:33.351Z,9.73
2019-04-29T17:48:48.659Z,11.12
2019-04-29T17:53:59.306Z,9.25
2019-04-29T17:59:29.556Z,7.12
2019-04-29T18:04:54.211Z,6.00
2019-04-29T18:10:05.818Z,7.10
2019-04-29T18:15:17.320Z,7.28
2019-04-29T18:20:59.507Z,6.22
2019-04-29T18:26:23.088Z,8.38
2019-04-29T18:31:30.700Z,6.90
2019-04-29T18:36:36.239Z,7.55
2019-04-29T18:41:42.178Z,8.25
2019-04-29T18:46:53.614Z,9.05
2019-04-29T18:51:57.949Z,12.73
2019-04-29T18:57:03.189Z,8.25
2019-04-29T19:02:09.518Z,12.82
2019-04-29T19:07:15.828Z,11.85
2019-04-29T19:12:21.687Z,6.12
2019-04-29T19:17:30.782Z,6.03
2019-04-29T19:22:36.025Z,8.93
2019-04-29T19:27:41.857Z,8.10
2019-04-29T19:32:47.808Z,4.50
2019-04-29T19:37:53.868Z,5.30
2019-04-29T19:42:59.667Z,5.60
2019-04-29T19:48:05.912Z,7.15
2019-04-29T19:53:11.986Z,3.83
2019-04-29T19:58:22.931Z,4.40
2019-04-29T20:03:36.001Z,2.95
2019-04-29T20:08:50.905Z,3.20
2019-04-29T20:13:41.726Z,1.45
2019-04-29T20:19:12.201Z,4.12
2019-04-29T20:24:15.454Z,3.60
2019-04-29T20:29:20.218Z,2.52
2019-04-29T20:34:28.205Z,3.22
2019-04-29T20:39:35.384Z,2.55
2019-04-29T20:44:44.699Z,2.27
2019-04-29T20:49:48.632Z,2.15
2019-04-29T20:55:00.802Z,1.87
2019-04-29T21:00:02.775Z,2.00
2019-04-29T21:05:09.971Z,1.80
2019-04-29T21:10:17.766Z,1.52
2019-04-29T21:15:29.147Z,1.72
2019-04-29T21:20:35.078Z,1.75
2019-04-29T21:25:41.037Z,2.60
2019-04-29T21:30:46.938Z,1.40
2019-04-29T21:36:15.442Z,2.00
2019-04-29T21:41:31.548Z,1.20
2019-04-29T21:46:38.017Z,1.47
2019-04-29T21:51:48.437Z,2.40
2019-04-29T21:56:51.047Z,1.55
2019-04-29T22:01:59.123Z,1.25
2019-04-29T22:07:07.223Z,1.42
2019-04-29T22:12:14.195Z,1.70
2019-04-29T22:17:19.229Z,1.42
2019-04-29T22:22:25.077Z,2.45
2019-04-29T22:27:34.106Z,1.60
2019-04-29T22:32:38.598Z,2.05
2019-04-29T22:37:45.465Z,1.17
2019-04-29T22:43:08.408Z,1.37
2019-04-29T22:48:18.979Z,1.95
2019-04-29T22:53:18.847Z,1.20
2019-04-29T22:58:24.940Z,1.45
2019-04-29T23:03:32.796Z,1.00
2019-04-29T23:08:38.354Z,1.47
2019-04-29T23:13:46.183Z,1.67
2019-04-29T23:18:51.866Z,1.72
2019-04-29T23:24:13.165Z,3.55
2019-04-29T23:29:16.106Z,1.05
2019-04-29T23:34:25.859Z,1.57
2019-04-29T23:39:29.157Z,1.00
2019-04-29T23:44:37.880Z,1.62
2019-04-29T23:49:44.571Z,0.90
2019-04-29T23:54:51.148Z,1.30
